Washburn, Tennessee
Current Conditions -  °F | °C
As of 10:55 PM on Tuesday 27 Jan 2015 (Local Time) from KMOR Reporting Station
Overcast Overcast  
Wind Chill: 23°   Ceiling: 3000
Heat Index: 30°   Visibility: 10mi
Dew Point: 19°   Wind: 8mph
Humidity: 64%   Direction: 330°NNW
Pressure: 30.16"   Gusts: NA
Location:  36.3°N, 83.6°W
Report Text: KMOR 280355Z AUTO 33007KT 310V030 10SM BKN030 OVC036 M01/M07 A3016 RMK
Loading
Personal Weather Stations






























Interactive Weather Map New forecast layout! Learn more

10-Day Weather Forecast

Advertisements
Track Severe Weather on mobile